sensor_id;sensor_type;location;lat;lon;timestamp;P1;durP1;ratioP1;P2;durP2;ratioP2
17052;SDS011;8643;48.824;11.422;2023-04-10T00:00:48;17.27;;;8.67;;
17052;SDS011;8643;48.824;11.422;2023-04-10T00:03:23;14.60;;;8.00;;
17052;SDS011;8643;48.824;11.422;2023-04-10T00:05:52;16.13;;;8.07;;
17052;SDS011;8643;48.824;11.422;2023-04-10T00:08:21;15.30;;;7.53;;
17052;SDS011;8643;48.824;11.422;2023-04-10T00:10:52;18.87;;;9.00;;
17052;SDS011;8643;48.824;11.422;2023-04-10T00:13:21;16.90;;;8.70;;
17052;SDS011;8643;48.824;11.422;2023-04-10T00:15:50;15.97;;;8.17;;
17052;SDS011;8643;48.824;11.422;2023-04-10T00:18:19;15.37;;;7.63;;
17052;SDS011;8643;48.824;11.422;2023-04-10T00:20:47;15.30;;;8.37;;
17052;SDS011;8643;48.824;11.422;2023-04-10T00:23:16;17.70;;;8.07;;
17052;SDS011;8643;48.824;11.422;2023-04-10T00:25:45;14.43;;;7.67;;
17052;SDS011;8643;48.824;11.422;2023-04-10T00:28:15;15.73;;;8.30;;
17052;SDS011;8643;48.824;11.422;2023-04-10T00:30:44;15.93;;;8.53;;
17052;SDS011;8643;48.824;11.422;2023-04-10T00:33:12;17.33;;;8.57;;
17052;SDS011;8643;48.824;11.422;2023-04-10T00:35:40;20.43;;;9.83;;
17052;SDS011;8643;48.824;11.422;2023-04-10T00:38:09;17.07;;;8.60;;
17052;SDS011;8643;48.824;11.422;2023-04-10T00:40:39;18.07;;;8.83;;
17052;SDS011;8643;48.824;11.422;2023-04-10T00:43:07;17.33;;;8.40;;
17052;SDS011;8643;48.824;11.422;2023-04-10T00:45:37;15.50;;;8.13;;
17052;SDS011;8643;48.824;11.422;2023-04-10T00:48:06;17.00;;;8.67;;
17052;SDS011;8643;48.824;11.422;2023-04-10T00:50:34;15.87;;;8.53;;
17052;SDS011;8643;48.824;11.422;2023-04-10T00:53:03;18.27;;;9.00;;
17052;SDS011;8643;48.824;11.422;2023-04-10T00:55:32;18.63;;;9.80;;
17052;SDS011;8643;48.824;11.422;2023-04-10T00:58:01;19.60;;;9.93;;
17052;SDS011;8643;48.824;11.422;2023-04-10T01:00:30;20.23;;;9.30;;
17052;SDS011;8643;48.824;11.422;2023-04-10T01:02:59;20.47;;;9.40;;
17052;SDS011;8643;48.824;11.422;2023-04-10T01:05:30;20.63;;;10.07;;
17052;SDS011;8643;48.824;11.422;2023-04-10T01:08:11;22.53;;;10.00;;
17052;SDS011;8643;48.824;11.422;2023-04-10T01:10:51;20.07;;;9.60;;
17052;SDS011;8643;48.824;11.422;2023-04-10T01:13:33;20.27;;;9.50;;
17052;SDS011;8643;48.824;11.422;2023-04-10T01:16:14;20.50;;;10.07;;
17052;SDS011;8643;48.824;11.422;2023-04-10T01:18:54;21.57;;;10.07;;
17052;SDS011;8643;48.824;11.422;2023-04-10T01:21:31;23.03;;;10.87;;
17052;SDS011;8643;48.824;11.422;2023-04-10T01:24:06;21.43;;;10.47;;
17052;SDS011;8643;48.824;11.422;2023-04-10T01:27:08;21.17;;;9.93;;
17052;SDS011;8643;48.824;11.422;2023-04-10T01:29:58;22.37;;;10.07;;
17052;SDS011;8643;48.824;11.422;2023-04-10T01:32:31;22.53;;;10.37;;
17052;SDS011;8643;48.824;11.422;2023-04-10T01:35:04;22.73;;;10.97;;
17052;SDS011;8643;48.824;11.422;2023-04-10T01:37:36;20.67;;;9.70;;
17052;SDS011;8643;48.824;11.422;2023-04-10T01:40:10;24.17;;;10.90;;
17052;SDS011;8643;48.824;11.422;2023-04-10T01:42:43;24.27;;;10.40;;
17052;SDS011;8643;48.824;11.422;2023-04-10T01:45:24;23.43;;;10.63;;
17052;SDS011;8643;48.824;11.422;2023-04-10T01:47:55;20.27;;;10.67;;
17052;SDS011;8643;48.824;11.422;2023-04-10T01:50:25;26.33;;;10.97;;
17052;SDS011;8643;48.824;11.422;2023-04-10T01:52:58;23.93;;;11.50;;
17052;SDS011;8643;48.824;11.422;2023-04-10T01:55:29;22.43;;;10.10;;
17052;SDS011;8643;48.824;11.422;2023-04-10T01:58:03;25.83;;;11.03;;
17052;SDS011;8643;48.824;11.422;2023-04-10T02:00:37;21.80;;;10.77;;
17052;SDS011;8643;48.824;11.422;2023-04-10T02:03:06;23.23;;;11.70;;
17052;SDS011;8643;48.824;11.422;2023-04-10T02:05:39;24.67;;;11.57;;
17052;SDS011;8643;48.824;11.422;2023-04-10T02:08:23;20.33;;;10.60;;
17052;SDS011;8643;48.824;11.422;2023-04-10T02:11:06;19.47;;;9.87;;
17052;SDS011;8643;48.824;11.422;2023-04-10T02:13:49;29.00;;;11.60;;
17052;SDS011;8643;48.824;11.422;2023-04-10T02:16:22;24.77;;;11.27;;
17052;SDS011;8643;48.824;11.422;2023-04-10T02:18:51;24.37;;;11.90;;
17052;SDS011;8643;48.824;11.422;2023-04-10T02:21:21;26.00;;;11.40;;
17052;SDS011;8643;48.824;11.422;2023-04-10T02:23:49;23.33;;;11.90;;
17052;SDS011;8643;48.824;11.422;2023-04-10T02:26:18;24.63;;;11.37;;
17052;SDS011;8643;48.824;11.422;2023-04-10T02:28:47;23.73;;;12.10;;
17052;SDS011;8643;48.824;11.422;2023-04-10T02:31:15;24.00;;;11.83;;
17052;SDS011;8643;48.824;11.422;2023-04-10T02:33:45;21.47;;;11.00;;
17052;SDS011;8643;48.824;11.422;2023-04-10T02:36:13;23.33;;;11.17;;
17052;SDS011;8643;48.824;11.422;2023-04-10T02:38:42;22.63;;;11.03;;
17052;SDS011;8643;48.824;11.422;2023-04-10T02:41:11;23.70;;;10.60;;
17052;SDS011;8643;48.824;11.422;2023-04-10T02:43:40;24.83;;;11.77;;
17052;SDS011;8643;48.824;11.422;2023-04-10T02:46:08;25.33;;;12.07;;
17052;SDS011;8643;48.824;11.422;2023-04-10T02:48:38;23.23;;;11.37;;
17052;SDS011;8643;48.824;11.422;2023-04-10T02:51:08;23.93;;;11.60;;
17052;SDS011;8643;48.824;11.422;2023-04-10T02:53:37;25.47;;;11.13;;
17052;SDS011;8643;48.824;11.422;2023-04-10T02:56:06;29.27;;;12.67;;
17052;SDS011;8643;48.824;11.422;2023-04-10T02:58:37;26.17;;;12.70;;
17052;SDS011;8643;48.824;11.422;2023-04-10T03:01:12;26.20;;;11.83;;
17052;SDS011;8643;48.824;11.422;2023-04-10T03:03:43;26.50;;;12.30;;
17052;SDS011;8643;48.824;11.422;2023-04-10T03:06:19;24.87;;;11.77;;
17052;SDS011;8643;48.824;11.422;2023-04-10T03:08:49;25.17;;;11.90;;
17052;SDS011;8643;48.824;11.422;2023-04-10T03:11:17;24.80;;;11.57;;
17052;SDS011;8643;48.824;11.422;2023-04-10T03:13:45;26.33;;;12.03;;
17052;SDS011;8643;48.824;11.422;2023-04-10T03:16:14;23.00;;;10.37;;
17052;SDS011;8643;48.824;11.422;2023-04-10T03:18:44;25.23;;;11.50;;
17052;SDS011;8643;48.824;11.422;2023-04-10T03:21:13;23.67;;;10.20;;
17052;SDS011;8643;48.824;11.422;2023-04-10T03:23:43;26.07;;;12.03;;
17052;SDS011;8643;48.824;11.422;2023-04-10T03:26:11;24.63;;;11.50;;
17052;SDS011;8643;48.824;11.422;2023-04-10T03:28:40;25.80;;;12.50;;
17052;SDS011;8643;48.824;11.422;2023-04-10T03:31:09;25.83;;;11.90;;
17052;SDS011;8643;48.824;11.422;2023-04-10T03:33:40;28.37;;;12.10;;
17052;SDS011;8643;48.824;11.422;2023-04-10T03:36:09;30.63;;;13.10;;
17052;SDS011;8643;48.824;11.422;2023-04-10T03:38:37;29.03;;;13.13;;
17052;SDS011;8643;48.824;11.422;2023-04-10T03:41:09;26.03;;;12.07;;
17052;SDS011;8643;48.824;11.422;2023-04-10T03:43:37;29.40;;;12.70;;
17052;SDS011;8643;48.824;11.422;2023-04-10T03:46:06;29.87;;;12.50;;
17052;SDS011;8643;48.824;11.422;2023-04-10T03:48:42;27.60;;;12.23;;
17052;SDS011;8643;48.824;11.422;2023-04-10T03:51:10;30.53;;;13.00;;
17052;SDS011;8643;48.824;11.422;2023-04-10T03:53:39;25.33;;;11.43;;
17052;SDS011;8643;48.824;11.422;2023-04-10T03:56:15;27.13;;;11.73;;
17052;SDS011;8643;48.824;11.422;2023-04-10T03:58:44;25.90;;;11.63;;
17052;SDS011;8643;48.824;11.422;2023-04-10T04:01:13;28.53;;;11.80;;
17052;SDS011;8643;48.824;11.422;2023-04-10T04:03:54;26.93;;;11.87;;
17052;SDS011;8643;48.824;11.422;2023-04-10T04:06:44;27.73;;;12.57;;
17052;SDS011;8643;48.824;11.422;2023-04-10T04:09:23;27.30;;;12.20;;
17052;SDS011;8643;48.824;11.422;2023-04-10T04:12:03;27.40;;;12.63;;
17052;SDS011;8643;48.824;11.422;2023-04-10T04:14:55;25.80;;;10.93;;
17052;SDS011;8643;48.824;11.422;2023-04-10T04:17:42;25.37;;;11.87;;
17052;SDS011;8643;48.824;11.422;2023-04-10T04:20:30;25.67;;;11.40;;
17052;SDS011;8643;48.824;11.422;2023-04-10T04:23:24;24.30;;;11.60;;
17052;SDS011;8643;48.824;11.422;2023-04-10T04:26:23;27.57;;;11.13;;
17052;SDS011;8643;48.824;11.422;2023-04-10T04:29:03;24.63;;;11.93;;
17052;SDS011;8643;48.824;11.422;2023-04-10T04:31:54;24.30;;;11.33;;
17052;SDS011;8643;48.824;11.422;2023-04-10T04:34:43;24.60;;;11.23;;
17052;SDS011;8643;48.824;11.422;2023-04-10T04:37:41;23.77;;;10.17;;
17052;SDS011;8643;48.824;11.422;2023-04-10T04:40:27;26.67;;;11.80;;
17052;SDS011;8643;48.824;11.422;2023-04-10T04:43:20;24.20;;;11.00;;
17052;SDS011;8643;48.824;11.422;2023-04-10T04:46:22;22.87;;;10.57;;
17052;SDS011;8643;48.824;11.422;2023-04-10T04:48:51;25.77;;;11.73;;
17052;SDS011;8643;48.824;11.422;2023-04-10T04:51:49;28.37;;;13.23;;
17052;SDS011;8643;48.824;11.422;2023-04-10T04:54:34;31.07;;;13.23;;
17052;SDS011;8643;48.824;11.422;2023-04-10T04:57:13;28.13;;;12.27;;
17052;SDS011;8643;48.824;11.422;2023-04-10T04:59:53;28.17;;;12.90;;
17052;SDS011;8643;48.824;11.422;2023-04-10T05:02:41;34.67;;;13.40;;
17052;SDS011;8643;48.824;11.422;2023-04-10T05:05:29;30.37;;;13.13;;
17052;SDS011;8643;48.824;11.422;2023-04-10T05:08:37;29.63;;;13.23;;
17052;SDS011;8643;48.824;11.422;2023-04-10T05:11:24;30.03;;;13.53;;
17052;SDS011;8643;48.824;11.422;2023-04-10T05:14:11;30.57;;;13.00;;
17052;SDS011;8643;48.824;11.422;2023-04-10T05:16:49;32.17;;;14.23;;
17052;SDS011;8643;48.824;11.422;2023-04-10T05:19:37;35.03;;;14.03;;
17052;SDS011;8643;48.824;11.422;2023-04-10T05:22:38;32.17;;;13.77;;
17052;SDS011;8643;48.824;11.422;2023-04-10T05:25:25;31.13;;;14.50;;
17052;SDS011;8643;48.824;11.422;2023-04-10T05:28:05;31.67;;;12.77;;
17052;SDS011;8643;48.824;11.422;2023-04-10T05:30:52;34.00;;;14.73;;
17052;SDS011;8643;48.824;11.422;2023-04-10T05:33:39;32.33;;;14.00;;
17052;SDS011;8643;48.824;11.422;2023-04-10T05:36:44;31.10;;;13.93;;
17052;SDS011;8643;48.824;11.422;2023-04-10T05:39:35;33.53;;;15.90;;
17052;SDS011;8643;48.824;11.422;2023-04-10T05:42:27;37.90;;;16.83;;
17052;SDS011;8643;48.824;11.422;2023-04-10T05:45:14;37.93;;;15.87;;
17052;SDS011;8643;48.824;11.422;2023-04-10T05:48:01;33.67;;;15.17;;
17052;SDS011;8643;48.824;11.422;2023-04-10T05:50:50;36.23;;;16.70;;
17052;SDS011;8643;48.824;11.422;2023-04-10T05:53:40;34.90;;;16.80;;
17052;SDS011;8643;48.824;11.422;2023-04-10T05:56:24;35.13;;;17.50;;
17052;SDS011;8643;48.824;11.422;2023-04-10T05:59:18;35.03;;;16.97;;
17052;SDS011;8643;48.824;11.422;2023-04-10T06:02:16;34.20;;;17.17;;
17052;SDS011;8643;48.824;11.422;2023-04-10T06:04:46;28.60;;;16.13;;
17052;SDS011;8643;48.824;11.422;2023-04-10T06:07:15;31.23;;;16.07;;
17052;SDS011;8643;48.824;11.422;2023-04-10T06:09:44;32.20;;;15.87;;
17052;SDS011;8643;48.824;11.422;2023-04-10T06:12:13;30.17;;;16.63;;
17052;SDS011;8643;48.824;11.422;2023-04-10T06:14:42;29.97;;;15.77;;
17052;SDS011;8643;48.824;11.422;2023-04-10T06:17:11;27.33;;;15.03;;
17052;SDS011;8643;48.824;11.422;2023-04-10T06:19:39;27.33;;;15.27;;
17052;SDS011;8643;48.824;11.422;2023-04-10T06:22:08;27.90;;;15.97;;
17052;SDS011;8643;48.824;11.422;2023-04-10T06:24:36;27.23;;;14.93;;
17052;SDS011;8643;48.824;11.422;2023-04-10T06:27:06;24.70;;;14.13;;
17052;SDS011;8643;48.824;11.422;2023-04-10T06:29:35;25.17;;;14.70;;
17052;SDS011;8643;48.824;11.422;2023-04-10T06:32:04;26.10;;;14.33;;
17052;SDS011;8643;48.824;11.422;2023-04-10T06:34:36;23.80;;;13.63;;
17052;SDS011;8643;48.824;11.422;2023-04-10T06:37:07;24.60;;;14.40;;
17052;SDS011;8643;48.824;11.422;2023-04-10T06:39:36;24.93;;;13.63;;
17052;SDS011;8643;48.824;11.422;2023-04-10T06:42:08;21.00;;;13.07;;
17052;SDS011;8643;48.824;11.422;2023-04-10T06:44:49;21.33;;;13.13;;
17052;SDS011;8643;48.824;11.422;2023-04-10T06:47:18;22.50;;;13.03;;
17052;SDS011;8643;48.824;11.422;2023-04-10T06:49:47;21.03;;;12.87;;
17052;SDS011;8643;48.824;11.422;2023-04-10T06:52:15;21.03;;;13.00;;
17052;SDS011;8643;48.824;11.422;2023-04-10T06:54:44;18.73;;;12.03;;
17052;SDS011;8643;48.824;11.422;2023-04-10T06:57:14;22.10;;;12.63;;
17052;SDS011;8643;48.824;11.422;2023-04-10T06:59:42;21.27;;;11.87;;
17052;SDS011;8643;48.824;11.422;2023-04-10T07:02:11;19.73;;;11.87;;
17052;SDS011;8643;48.824;11.422;2023-04-10T07:04:40;18.80;;;12.17;;
17052;SDS011;8643;48.824;11.422;2023-04-10T07:07:09;18.43;;;11.77;;
17052;SDS011;8643;48.824;11.422;2023-04-10T07:09:39;21.00;;;13.00;;
17052;SDS011;8643;48.824;11.422;2023-04-10T07:12:09;19.43;;;12.43;;
17052;SDS011;8643;48.824;11.422;2023-04-10T07:14:39;19.57;;;11.53;;
17052;SDS011;8643;48.824;11.422;2023-04-10T07:17:07;20.03;;;11.37;;
17052;SDS011;8643;48.824;11.422;2023-04-10T07:19:36;18.53;;;11.60;;
17052;SDS011;8643;48.824;11.422;2023-04-10T07:22:05;17.87;;;11.43;;
17052;SDS011;8643;48.824;11.422;2023-04-10T07:24:34;18.60;;;11.30;;
17052;SDS011;8643;48.824;11.422;2023-04-10T07:27:03;18.33;;;11.70;;
17052;SDS011;8643;48.824;11.422;2023-04-10T07:29:31;18.43;;;12.13;;
17052;SDS011;8643;48.824;11.422;2023-04-10T07:32:01;18.00;;;11.57;;
17052;SDS011;8643;48.824;11.422;2023-04-10T07:34:30;16.37;;;10.97;;
17052;SDS011;8643;48.824;11.422;2023-04-10T07:36:58;18.20;;;11.60;;
17052;SDS011;8643;48.824;11.422;2023-04-10T07:39:27;16.43;;;10.83;;
17052;SDS011;8643;48.824;11.422;2023-04-10T07:41:55;17.83;;;11.90;;
17052;SDS011;8643;48.824;11.422;2023-04-10T07:44:24;17.60;;;12.00;;
17052;SDS011;8643;48.824;11.422;2023-04-10T07:46:53;19.80;;;11.60;;
17052;SDS011;8643;48.824;11.422;2023-04-10T07:49:23;18.90;;;11.57;;
17052;SDS011;8643;48.824;11.422;2023-04-10T07:51:52;19.70;;;12.27;;
17052;SDS011;8643;48.824;11.422;2023-04-10T07:54:20;18.85;;;12.13;;
17052;SDS011;8643;48.824;11.422;2023-04-10T07:56:50;19.17;;;12.93;;
17052;SDS011;8643;48.824;11.422;2023-04-10T07:59:21;18.63;;;12.00;;
17052;SDS011;8643;48.824;11.422;2023-04-10T08:01:52;16.50;;;11.30;;
17052;SDS011;8643;48.824;11.422;2023-04-10T08:04:22;16.80;;;11.52;;
17052;SDS011;8643;48.824;11.422;2023-04-10T08:06:51;16.48;;;11.25;;
17052;SDS011;8643;48.824;11.422;2023-04-10T08:09:20;18.08;;;11.35;;
17052;SDS011;8643;48.824;11.422;2023-04-10T08:11:48;18.02;;;11.77;;
17052;SDS011;8643;48.824;11.422;2023-04-10T08:14:17;15.77;;;11.23;;
17052;SDS011;8643;48.824;11.422;2023-04-10T08:16:45;14.73;;;10.50;;
17052;SDS011;8643;48.824;11.422;2023-04-10T08:19:14;17.02;;;10.40;;
17052;SDS011;8643;48.824;11.422;2023-04-10T08:21:43;15.38;;;11.00;;
17052;SDS011;8643;48.824;11.422;2023-04-10T08:24:12;16.50;;;10.52;;
17052;SDS011;8643;48.824;11.422;2023-04-10T08:26:40;14.38;;;10.23;;
17052;SDS011;8643;48.824;11.422;2023-04-10T08:29:09;14.88;;;10.43;;
17052;SDS011;8643;48.824;11.422;2023-04-10T08:31:38;17.63;;;11.15;;
17052;SDS011;8643;48.824;11.422;2023-04-10T08:34:06;14.90;;;10.52;;
17052;SDS011;8643;48.824;11.422;2023-04-10T08:36:35;16.15;;;10.85;;
17052;SDS011;8643;48.824;11.422;2023-04-10T08:39:05;13.65;;;10.05;;
17052;SDS011;8643;48.824;11.422;2023-04-10T08:41:33;14.23;;;9.98;;
17052;SDS011;8643;48.824;11.422;2023-04-10T08:44:02;15.80;;;11.35;;
17052;SDS011;8643;48.824;11.422;2023-04-10T08:46:31;14.88;;;10.70;;
17052;SDS011;8643;48.824;11.422;2023-04-10T08:49:06;13.68;;;10.02;;
17052;SDS011;8643;48.824;11.422;2023-04-10T08:51:42;13.90;;;10.23;;
17052;SDS011;8643;48.824;11.422;2023-04-10T08:54:20;14.25;;;10.32;;
17052;SDS011;8643;48.824;11.422;2023-04-10T08:56:55;14.90;;;10.50;;
17052;SDS011;8643;48.824;11.422;2023-04-10T08:59:26;15.07;;;10.65;;
17052;SDS011;8643;48.824;11.422;2023-04-10T09:01:56;14.65;;;10.32;;
17052;SDS011;8643;48.824;11.422;2023-04-10T09:04:26;14.32;;;10.05;;
17052;SDS011;8643;48.824;11.422;2023-04-10T09:06:54;13.65;;;9.93;;
17052;SDS011;8643;48.824;11.422;2023-04-10T09:09:24;14.95;;;10.55;;
17052;SDS011;8643;48.824;11.422;2023-04-10T09:11:56;14.63;;;10.55;;
17052;SDS011;8643;48.824;11.422;2023-04-10T09:14:30;14.07;;;9.38;;
17052;SDS011;8643;48.824;11.422;2023-04-10T09:17:09;13.70;;;9.35;;
17052;SDS011;8643;48.824;11.422;2023-04-10T09:19:44;14.13;;;9.30;;
17052;SDS011;8643;48.824;11.422;2023-04-10T09:22:14;14.45;;;9.85;;
17052;SDS011;8643;48.824;11.422;2023-04-10T09:24:44;12.98;;;8.98;;
17052;SDS011;8643;48.824;11.422;2023-04-10T09:27:26;9.63;;;6.95;;
17052;SDS011;8643;48.824;11.422;2023-04-10T09:29:57;9.65;;;6.68;;
17052;SDS011;8643;48.824;11.422;2023-04-10T09:32:35;9.45;;;6.85;;
17052;SDS011;8643;48.824;11.422;2023-04-10T09:35:07;10.90;;;7.70;;
17052;SDS011;8643;48.824;11.422;2023-04-10T09:37:38;10.23;;;6.85;;
17052;SDS011;8643;48.824;11.422;2023-04-10T09:40:19;10.10;;;7.25;;
17052;SDS011;8643;48.824;11.422;2023-04-10T09:42:52;11.40;;;8.45;;
17052;SDS011;8643;48.824;11.422;2023-04-10T09:45:22;9.77;;;7.30;;
17052;SDS011;8643;48.824;11.422;2023-04-10T09:48:00;11.65;;;8.00;;
17052;SDS011;8643;48.824;11.422;2023-04-10T09:50:34;10.82;;;7.95;;
17052;SDS011;8643;48.824;11.422;2023-04-10T09:53:05;9.75;;;7.15;;
17052;SDS011;8643;48.824;11.422;2023-04-10T09:55:36;10.52;;;7.43;;
17052;SDS011;8643;48.824;11.422;2023-04-10T09:58:05;9.75;;;7.20;;
17052;SDS011;8643;48.824;11.422;2023-04-10T10:00:36;8.90;;;6.88;;
17052;SDS011;8643;48.824;11.422;2023-04-10T10:03:09;10.38;;;7.70;;
17052;SDS011;8643;48.824;11.422;2023-04-10T10:05:40;9.35;;;7.20;;
17052;SDS011;8643;48.824;11.422;2023-04-10T10:08:11;10.43;;;7.78;;
17052;SDS011;8643;48.824;11.422;2023-04-10T10:10:45;10.38;;;7.80;;
17052;SDS011;8643;48.824;11.422;2023-04-10T10:13:19;9.60;;;7.35;;
17052;SDS011;8643;48.824;11.422;2023-04-10T10:16:03;9.65;;;7.30;;
17052;SDS011;8643;48.824;11.422;2023-04-10T10:18:42;11.15;;;7.13;;
17052;SDS011;8643;48.824;11.422;2023-04-10T10:21:17;9.38;;;7.38;;
17052;SDS011;8643;48.824;11.422;2023-04-10T10:23:47;9.50;;;7.45;;
17052;SDS011;8643;48.824;11.422;2023-04-10T10:26:20;9.00;;;7.00;;
17052;SDS011;8643;48.824;11.422;2023-04-10T10:28:50;10.95;;;7.40;;
17052;SDS011;8643;48.824;11.422;2023-04-10T10:31:21;10.45;;;7.55;;
17052;SDS011;8643;48.824;11.422;2023-04-10T10:33:53;10.57;;;7.57;;
17052;SDS011;8643;48.824;11.422;2023-04-10T10:36:22;9.95;;;7.38;;
17052;SDS011;8643;48.824;11.422;2023-04-10T10:38:54;9.88;;;7.55;;
17052;SDS011;8643;48.824;11.422;2023-04-10T10:41:50;8.82;;;6.95;;
17052;SDS011;8643;48.824;11.422;2023-04-10T10:44:32;9.43;;;6.97;;
17052;SDS011;8643;48.824;11.422;2023-04-10T10:47:13;9.60;;;7.50;;
17052;SDS011;8643;48.824;11.422;2023-04-10T10:49:53;10.63;;;7.85;;
17052;SDS011;8643;48.824;11.422;2023-04-10T10:55:27;9.73;;;6.72;;
17052;SDS011;8643;48.824;11.422;2023-04-10T10:58:02;8.43;;;6.85;;
17052;SDS011;8643;48.824;11.422;2023-04-10T11:03:36;9.32;;;7.57;;
17052;SDS011;8643;48.824;11.422;2023-04-10T11:06:06;10.35;;;8.20;;
17052;SDS011;8643;48.824;11.422;2023-04-10T11:08:38;10.10;;;7.50;;
17052;SDS011;8643;48.824;11.422;2023-04-10T11:11:12;10.70;;;8.18;;
17052;SDS011;8643;48.824;11.422;2023-04-10T11:16:46;9.13;;;7.32;;
17052;SDS011;8643;48.824;11.422;2023-04-10T11:19:15;10.77;;;7.82;;
17052;SDS011;8643;48.824;11.422;2023-04-10T11:22:01;8.48;;;6.80;;
17052;SDS011;8643;48.824;11.422;2023-04-10T11:24:50;8.82;;;6.82;;
17052;SDS011;8643;48.824;11.422;2023-04-10T11:27:43;12.63;;;7.50;;
17052;SDS011;8643;48.824;11.422;2023-04-10T11:30:26;10.57;;;8.02;;
17052;SDS011;8643;48.824;11.422;2023-04-10T11:32:59;9.88;;;7.50;;
17052;SDS011;8643;48.824;11.422;2023-04-10T11:35:29;8.35;;;6.53;;
17052;SDS011;8643;48.824;11.422;2023-04-10T11:38:08;8.27;;;6.40;;
17052;SDS011;8643;48.824;11.422;2023-04-10T11:40:55;8.35;;;6.80;;
17052;SDS011;8643;48.824;11.422;2023-04-10T11:43:28;9.07;;;7.20;;
17052;SDS011;8643;48.824;11.422;2023-04-10T11:46:04;9.15;;;7.28;;
17052;SDS011;8643;48.824;11.422;2023-04-10T11:48:35;8.60;;;7.15;;
17052;SDS011;8643;48.824;11.422;2023-04-10T11:51:07;8.07;;;6.60;;
17052;SDS011;8643;48.824;11.422;2023-04-10T11:53:38;8.45;;;6.68;;
17052;SDS011;8643;48.824;11.422;2023-04-10T11:56:13;7.40;;;6.43;;
17052;SDS011;8643;48.824;11.422;2023-04-10T11:58:48;8.00;;;6.22;;
17052;SDS011;8643;48.824;11.422;2023-04-10T12:01:21;7.45;;;5.53;;
17052;SDS011;8643;48.824;11.422;2023-04-10T12:03:50;7.85;;;6.18;;
17052;SDS011;8643;48.824;11.422;2023-04-10T12:06:19;8.27;;;6.45;;
17052;SDS011;8643;48.824;11.422;2023-04-10T12:08:48;8.57;;;6.50;;
17052;SDS011;8643;48.824;11.422;2023-04-10T12:11:18;8.20;;;6.38;;
17052;SDS011;8643;48.824;11.422;2023-04-10T12:13:50;7.38;;;5.88;;
17052;SDS011;8643;48.824;11.422;2023-04-10T12:16:21;7.93;;;6.45;;
17052;SDS011;8643;48.824;11.422;2023-04-10T12:18:52;7.93;;;6.40;;
17052;SDS011;8643;48.824;11.422;2023-04-10T12:21:22;6.20;;;5.10;;
17052;SDS011;8643;48.824;11.422;2023-04-10T12:23:51;6.68;;;5.40;;
17052;SDS011;8643;48.824;11.422;2023-04-10T12:26:19;8.82;;;5.50;;
17052;SDS011;8643;48.824;11.422;2023-04-10T12:28:50;6.50;;;4.97;;
17052;SDS011;8643;48.824;11.422;2023-04-10T12:31:29;5.80;;;4.90;;
17052;SDS011;8643;48.824;11.422;2023-04-10T12:34:00;5.93;;;5.00;;
17052;SDS011;8643;48.824;11.422;2023-04-10T12:36:31;35.00;;;5.80;;
17052;SDS011;8643;48.824;11.422;2023-04-10T12:39:01;6.30;;;4.43;;
17052;SDS011;8643;48.824;11.422;2023-04-10T12:41:32;6.80;;;5.40;;
17052;SDS011;8643;48.824;11.422;2023-04-10T12:44:05;5.75;;;4.60;;
17052;SDS011;8643;48.824;11.422;2023-04-10T12:46:38;8.70;;;5.30;;
17052;SDS011;8643;48.824;11.422;2023-04-10T12:49:09;16.58;;;6.63;;
17052;SDS011;8643;48.824;11.422;2023-04-10T12:51:45;6.65;;;5.15;;
17052;SDS011;8643;48.824;11.422;2023-04-10T12:54:25;7.47;;;5.00;;
17052;SDS011;8643;48.824;11.422;2023-04-10T12:56:56;5.07;;;4.38;;
17052;SDS011;8643;48.824;11.422;2023-04-10T12:59:26;6.00;;;4.60;;
17052;SDS011;8643;48.824;11.422;2023-04-10T13:01:56;9.57;;;4.78;;
17052;SDS011;8643;48.824;11.422;2023-04-10T13:04:25;6.35;;;5.05;;
17052;SDS011;8643;48.824;11.422;2023-04-10T13:06:57;6.22;;;5.05;;
17052;SDS011;8643;48.824;11.422;2023-04-10T13:09:26;8.68;;;4.95;;
17052;SDS011;8643;48.824;11.422;2023-04-10T13:11:54;7.13;;;5.07;;
17052;SDS011;8643;48.824;11.422;2023-04-10T13:14:24;5.43;;;4.20;;
17052;SDS011;8643;48.824;11.422;2023-04-10T13:16:52;6.00;;;4.38;;
17052;SDS011;8643;48.824;11.422;2023-04-10T13:19:22;4.78;;;4.10;;
17052;SDS011;8643;48.824;11.422;2023-04-10T13:21:50;6.88;;;5.35;;
17052;SDS011;8643;48.824;11.422;2023-04-10T13:24:18;9.18;;;5.50;;
17052;SDS011;8643;48.824;11.422;2023-04-10T13:26:47;6.00;;;4.90;;
17052;SDS011;8643;48.824;11.422;2023-04-10T13:29:15;7.07;;;5.57;;
17052;SDS011;8643;48.824;11.422;2023-04-10T13:31:44;7.13;;;4.65;;
17052;SDS011;8643;48.824;11.422;2023-04-10T13:34:12;6.78;;;5.38;;
17052;SDS011;8643;48.824;11.422;2023-04-10T13:36:42;8.63;;;5.35;;
17052;SDS011;8643;48.824;11.422;2023-04-10T13:39:10;6.53;;;5.18;;
17052;SDS011;8643;48.824;11.422;2023-04-10T13:41:39;5.90;;;4.60;;
17052;SDS011;8643;48.824;11.422;2023-04-10T13:44:07;6.18;;;4.93;;
17052;SDS011;8643;48.824;11.422;2023-04-10T13:46:35;10.07;;;4.75;;
17052;SDS011;8643;48.824;11.422;2023-04-10T13:49:04;5.25;;;4.22;;
17052;SDS011;8643;48.824;11.422;2023-04-10T13:51:32;5.55;;;4.50;;
17052;SDS011;8643;48.824;11.422;2023-04-10T13:54:02;5.47;;;4.50;;
17052;SDS011;8643;48.824;11.422;2023-04-10T13:56:31;6.25;;;4.70;;
17052;SDS011;8643;48.824;11.422;2023-04-10T13:58:59;7.40;;;5.07;;
17052;SDS011;8643;48.824;11.422;2023-04-10T14:01:27;6.55;;;5.07;;
17052;SDS011;8643;48.824;11.422;2023-04-10T14:03:56;6.82;;;5.20;;
17052;SDS011;8643;48.824;11.422;2023-04-10T14:06:24;7.38;;;4.88;;
17052;SDS011;8643;48.824;11.422;2023-04-10T14:08:53;6.18;;;4.88;;
17052;SDS011;8643;48.824;11.422;2023-04-10T14:11:24;5.40;;;4.72;;
17052;SDS011;8643;48.824;11.422;2023-04-10T14:13:52;5.70;;;4.70;;
17052;SDS011;8643;48.824;11.422;2023-04-10T14:16:20;6.10;;;4.65;;
17052;SDS011;8643;48.824;11.422;2023-04-10T14:18:49;6.10;;;4.93;;
17052;SDS011;8643;48.824;11.422;2023-04-10T14:21:18;5.75;;;4.90;;
17052;SDS011;8643;48.824;11.422;2023-04-10T14:23:46;7.57;;;4.55;;
17052;SDS011;8643;48.824;11.422;2023-04-10T14:26:15;5.70;;;4.65;;
17052;SDS011;8643;48.824;11.422;2023-04-10T14:28:44;5.22;;;4.40;;
17052;SDS011;8643;48.824;11.422;2023-04-10T14:31:12;4.95;;;4.13;;
17052;SDS011;8643;48.824;11.422;2023-04-10T14:33:41;4.70;;;4.10;;
17052;SDS011;8643;48.824;11.422;2023-04-10T14:36:09;5.03;;;3.80;;
17052;SDS011;8643;48.824;11.422;2023-04-10T14:38:38;5.22;;;3.67;;
17052;SDS011;8643;48.824;11.422;2023-04-10T14:41:06;5.03;;;4.13;;
17052;SDS011;8643;48.824;11.422;2023-04-10T14:43:35;5.45;;;4.47;;
17052;SDS011;8643;48.824;11.422;2023-04-10T14:46:06;5.60;;;4.60;;
17052;SDS011;8643;48.824;11.422;2023-04-10T14:48:34;5.55;;;4.32;;
17052;SDS011;8643;48.824;11.422;2023-04-10T14:51:03;5.20;;;4.03;;
17052;SDS011;8643;48.824;11.422;2023-04-10T14:53:38;4.85;;;4.07;;
17052;SDS011;8643;48.824;11.422;2023-04-10T14:56:10;5.40;;;4.28;;
17052;SDS011;8643;48.824;11.422;2023-04-10T14:58:39;5.32;;;4.05;;
17052;SDS011;8643;48.824;11.422;2023-04-10T15:01:10;7.15;;;4.70;;
17052;SDS011;8643;48.824;11.422;2023-04-10T15:03:39;6.47;;;4.63;;
17052;SDS011;8643;48.824;11.422;2023-04-10T15:06:08;5.43;;;4.25;;
17052;SDS011;8643;48.824;11.422;2023-04-10T15:08:36;4.85;;;3.65;;
17052;SDS011;8643;48.824;11.422;2023-04-10T15:11:05;5.00;;;3.92;;
17052;SDS011;8643;48.824;11.422;2023-04-10T15:13:33;5.50;;;3.63;;
17052;SDS011;8643;48.824;11.422;2023-04-10T15:16:03;5.30;;;4.07;;